createdAt,value
2019-03-26T00:00:28.731Z,102103.97
2019-03-26T00:02:55.324Z,102097.87
2019-03-26T00:05:21.126Z,102100.32
2019-03-26T00:07:46.911Z,102105.30
2019-03-26T00:10:12.705Z,102106.27
2019-03-26T00:12:38.598Z,102103.45
2019-03-26T00:15:04.997Z,102101.88
2019-03-26T00:17:30.784Z,102105.65
2019-03-26T00:19:56.611Z,102108.31
2019-03-26T00:22:22.407Z,102101.16
2019-03-26T00:24:48.216Z,102103.83
2019-03-26T00:27:14.005Z,102119.38
2019-03-26T00:29:39.808Z,102109.88
2019-03-26T00:32:05.596Z,102105.38
2019-03-26T00:34:31.394Z,102105.17
2019-03-26T00:36:57.181Z,102094.80
2019-03-26T00:39:22.977Z,102089.11
2019-03-26T00:41:48.763Z,102085.48
2019-03-26T00:44:14.564Z,102079.31
2019-03-26T00:46:40.381Z,102087.94
2019-03-26T00:49:06.194Z,102085.64
2019-03-26T00:51:31.983Z,102085.75
2019-03-26T00:53:57.785Z,102093.30
2019-03-26T00:56:23.586Z,102092.06
2019-03-26T00:58:49.375Z,102093.90
2019-03-26T01:01:15.278Z,102086.48
2019-03-26T01:03:41.070Z,102089.16
2019-03-26T01:06:06.870Z,102089.30
2019-03-26T01:08:32.751Z,102084.05
2019-03-26T01:10:58.547Z,102092.44
2019-03-26T01:13:24.348Z,102086.48
2019-03-26T01:15:50.145Z,102085.25
2019-03-26T01:18:15.930Z,102092.94
2019-03-26T01:20:41.731Z,102087.55
2019-03-26T01:23:07.524Z,102085.38
2019-03-26T01:25:33.318Z,102090.73
2019-03-26T01:27:59.102Z,102093.16
2019-03-26T01:30:24.904Z,102090.95
2019-03-26T01:32:50.685Z,102087.08
2019-03-26T01:35:16.485Z,102081.50
2019-03-26T01:37:42.269Z,102087.45
2019-03-26T01:40:08.059Z,102081.84
2019-03-26T01:42:33.895Z,102076.16
2019-03-26T01:44:59.641Z,102076.63
2019-03-26T01:47:25.438Z,102069.22
2019-03-26T01:49:51.223Z,102075.16
2019-03-26T01:52:17.030Z,102073.12
2019-03-26T01:54:42.814Z,102076.12
2019-03-26T01:57:08.621Z,102074.45
2019-03-26T01:59:34.400Z,102063.13
2019-03-26T02:02:00.201Z,102073.95
2019-03-26T02:04:25.987Z,102072.11
2019-03-26T02:06:51.795Z,102064.58
2019-03-26T02:09:17.568Z,102069.80
2019-03-26T02:11:43.366Z,102075.13
2019-03-26T02:14:09.155Z,102069.64
2019-03-26T02:16:34.957Z,102069.05
2019-03-26T02:19:00.760Z,102067.84
2019-03-26T02:21:26.560Z,102067.11
2019-03-26T02:23:52.361Z,102069.31
2019-03-26T02:26:18.153Z,102067.25
2019-03-26T02:28:43.957Z,102066.16
2019-03-26T02:31:09.743Z,102071.73
2019-03-26T02:33:35.538Z,102066.16
2019-03-26T02:36:01.323Z,102062.89
2019-03-26T02:38:27.291Z,102065.92
2019-03-26T02:40:53.088Z,102062.88
2019-03-26T02:43:18.890Z,102068.81
2019-03-26T02:45:44.679Z,102069.41
2019-03-26T02:48:10.476Z,102071.61
2019-03-26T02:50:36.266Z,102064.56
2019-03-26T02:53:02.084Z,102057.61
2019-03-26T02:55:27.860Z,102053.61
2019-03-26T02:57:53.655Z,102058.17
2019-03-26T03:00:19.942Z,102051.27
2019-03-26T03:02:45.736Z,102046.91
2019-03-26T03:05:11.629Z,102048.47
2019-03-26T03:07:37.456Z,102051.02
2019-03-26T03:10:04.637Z,102043.38
2019-03-26T03:12:30.432Z,102040.42
2019-03-26T03:14:56.354Z,102059.74
2019-03-26T03:17:22.146Z,102042.98
2019-03-26T03:19:47.957Z,102041.15
2019-03-26T03:22:13.734Z,102046.85
2019-03-26T03:24:39.537Z,102039.33
2019-03-26T03:27:05.331Z,102041.61
2019-03-26T03:29:31.116Z,102040.04
2019-03-26T03:31:56.918Z,102036.94
2019-03-26T03:34:22.697Z,102034.43
2019-03-26T03:36:48.469Z,102023.42
2019-03-26T03:39:14.252Z,102023.44
2019-03-26T03:41:40.070Z,102018.11
2019-03-26T03:44:05.884Z,102016.41
2019-03-26T03:46:32.040Z,102018.11
2019-03-26T03:48:58.037Z,102019.94
2019-03-26T03:51:25.222Z,102024.31
2019-03-26T03:53:51.106Z,102015.80
2019-03-26T03:56:18.293Z,102018.23
2019-03-26T03:58:45.978Z,102017.03
2019-03-26T04:01:11.773Z,102016.66
2019-03-26T04:03:37.551Z,102020.19
2019-03-26T04:06:09.554Z,102011.89
2019-03-26T04:08:31.017Z,102013.34
2019-03-26T04:10:56.806Z,102020.52
2019-03-26T04:13:22.586Z,102029.86
2019-03-26T04:15:48.405Z,102013.66
2019-03-26T04:18:14.179Z,102013.55
2019-03-26T04:20:39.994Z,101999.91
2019-03-26T04:23:05.785Z,101995.41
2019-03-26T04:25:31.581Z,101994.44
2019-03-26T04:27:57.348Z,101999.28
2019-03-26T04:30:28.747Z,101994.19
2019-03-26T04:32:54.528Z,101999.78
2019-03-26T04:35:20.415Z,101992.23
2019-03-26T04:37:46.193Z,102001.14
2019-03-26T04:40:11.985Z,101994.84
2019-03-26T04:42:37.761Z,102001.63
2019-03-26T04:45:03.851Z,101995.81
2019-03-26T04:47:29.644Z,101997.23
2019-03-26T04:49:55.419Z,101992.58
2019-03-26T04:52:21.213Z,101986.12
2019-03-26T04:54:46.992Z,101989.85
2019-03-26T04:57:12.785Z,101988.97
2019-03-26T04:59:38.559Z,101994.45
2019-03-26T05:02:04.347Z,101987.23
2019-03-26T05:04:30.133Z,101984.14
2019-03-26T05:06:55.924Z,101990.94
2019-03-26T05:09:21.694Z,101988.37
2019-03-26T05:11:47.492Z,101988.00
2019-03-26T05:14:13.271Z,101987.86
2019-03-26T05:16:39.055Z,101991.41
2019-03-26T05:19:04.838Z,101992.13
2019-03-26T05:21:30.627Z,102000.45
2019-03-26T05:23:56.507Z,102005.98
2019-03-26T05:26:22.312Z,102002.33
2019-03-26T05:28:48.088Z,102002.36
2019-03-26T05:31:13.887Z,102006.73
2019-03-26T05:33:39.664Z,102009.66
2019-03-26T05:36:05.457Z,102004.93
2019-03-26T05:38:31.243Z,102001.20
2019-03-26T05:40:57.024Z,102000.48
2019-03-26T05:43:22.828Z,102017.59
2019-03-26T05:45:48.611Z,101998.78
2019-03-26T05:48:14.412Z,102010.80
2019-03-26T05:50:40.184Z,102003.92
2019-03-26T05:53:05.979Z,102001.83
2019-03-26T05:55:31.764Z,101998.27
2019-03-26T05:57:57.547Z,101994.52
2019-03-26T06:00:24.530Z,101989.34
2019-03-26T06:02:50.319Z,101990.36
2019-03-26T06:05:16.091Z,101993.28
2019-03-26T06:07:41.878Z,102001.10
2019-03-26T06:10:08.474Z,102007.97
2019-03-26T06:12:34.263Z,102002.10
2019-03-26T06:15:00.052Z,102009.81
2019-03-26T06:17:25.941Z,102002.14
2019-03-26T06:19:51.721Z,101988.04
2019-03-26T06:22:17.533Z,101989.16
2019-03-26T06:24:43.324Z,101989.48
2019-03-26T06:27:09.100Z,101988.76
2019-03-26T06:29:34.891Z,101976.34
2019-03-26T06:32:00.667Z,101976.91
2019-03-26T06:34:26.463Z,101975.43
2019-03-26T06:36:52.255Z,101984.14
2019-03-26T06:39:18.053Z,101976.98
2019-03-26T06:41:43.829Z,101979.55
2019-03-26T06:44:09.634Z,101968.83
2019-03-26T06:46:35.407Z,101968.56
2019-03-26T06:49:01.191Z,101978.05
2019-03-26T06:51:26.963Z,101982.34
2019-03-26T06:53:52.753Z,101973.57
2019-03-26T06:56:18.528Z,101986.29
2019-03-26T06:58:44.318Z,101981.23
2019-03-26T07:01:10.184Z,101991.18
2019-03-26T07:03:35.971Z,101979.35
2019-03-26T07:06:01.755Z,101984.00
2019-03-26T07:08:27.575Z,101983.31
2019-03-26T07:10:53.353Z,101991.35
2019-03-26T07:13:19.140Z,101980.62
2019-03-26T07:15:44.928Z,101982.68
2019-03-26T07:18:10.710Z,101985.16
2019-03-26T07:20:36.514Z,101982.92
2019-03-26T07:23:02.311Z,101986.59
2019-03-26T07:25:28.117Z,101992.55
2019-03-26T07:27:53.875Z,101995.86
2019-03-26T07:30:23.492Z,101997.05
2019-03-26T07:32:49.263Z,101996.03
2019-03-26T07:35:15.066Z,101992.69
2019-03-26T07:37:45.620Z,101985.78
2019-03-26T07:40:08.637Z,101990.67
2019-03-26T07:42:34.414Z,101987.69
2019-03-26T07:45:00.427Z,101989.45
2019-03-26T07:47:26.206Z,101989.18
2019-03-26T07:49:51.991Z,101998.18
2019-03-26T07:52:17.771Z,101993.59
2019-03-26T07:54:43.555Z,101998.75
2019-03-26T07:57:09.331Z,101995.64
2019-03-26T07:59:35.115Z,101992.78
2019-03-26T08:02:00.913Z,101984.39
2019-03-26T08:04:26.687Z,101984.39
2019-03-26T08:06:52.499Z,101979.48
2019-03-26T08:09:18.296Z,101978.05
2019-03-26T08:11:44.061Z,101957.13
2019-03-26T08:14:09.902Z,101971.95
2019-03-26T08:16:35.659Z,101971.95
2019-03-26T08:19:01.427Z,101975.55
2019-03-26T08:21:27.214Z,101976.73
2019-03-26T08:23:53.012Z,101971.53
2019-03-26T08:26:18.795Z,101975.23
2019-03-26T08:28:44.593Z,101973.86
2019-03-26T08:31:10.373Z,101971.97
2019-03-26T08:33:36.171Z,101966.86
2019-03-26T08:36:01.952Z,101972.59
2019-03-26T08:38:27.741Z,101985.42
2019-03-26T08:40:53.534Z,101984.95
2019-03-26T08:43:19.841Z,101980.65
2019-03-26T08:45:45.630Z,101978.00
2019-03-26T08:48:11.414Z,101980.25
2019-03-26T08:50:37.196Z,101969.00
2019-03-26T08:53:02.974Z,101980.28
2019-03-26T08:55:28.761Z,102001.81
2019-03-26T08:57:54.721Z,102000.95
2019-03-26T09:00:20.520Z,102007.96
2019-03-26T09:02:46.405Z,102010.20
2019-03-26T09:05:12.404Z,102009.35
2019-03-26T09:07:38.179Z,102006.19
2019-03-26T09:10:07.372Z,102017.48
2019-03-26T09:12:33.152Z,102019.69
2019-03-26T09:14:58.938Z,102016.05
2019-03-26T09:17:24.717Z,102011.30
2019-03-26T09:19:50.497Z,102015.23
2019-03-26T09:22:16.289Z,102005.87
2019-03-26T09:24:42.075Z,102000.77
2019-03-26T09:27:07.874Z,102005.88
2019-03-26T09:29:33.655Z,102006.56
2019-03-26T09:31:59.446Z,101998.52
2019-03-26T09:34:25.248Z,102001.45
2019-03-26T09:36:51.029Z,102001.27
2019-03-26T09:39:16.815Z,102008.69
2019-03-26T09:41:42.622Z,102010.35
2019-03-26T09:44:08.394Z,102009.08
2019-03-26T09:46:34.197Z,102005.78
2019-03-26T09:48:59.970Z,102008.75
2019-03-26T09:51:25.817Z,102003.37
2019-03-26T09:53:51.595Z,101998.06
2019-03-26T09:56:28.321Z,102005.45
2019-03-26T09:58:45.072Z,102003.25
2019-03-26T10:01:10.849Z,102005.45
2019-03-26T10:03:36.623Z,102005.59
2019-03-26T10:06:02.417Z,102009.21
2019-03-26T10:08:28.191Z,102004.92
2019-03-26T10:10:53.976Z,102009.44
2019-03-26T10:13:19.772Z,102001.18
2019-03-26T10:15:45.551Z,102003.83
2019-03-26T10:18:11.344Z,102004.80
2019-03-26T10:20:37.137Z,102006.39
2019-03-26T10:23:02.926Z,102006.91
2019-03-26T10:25:28.707Z,102002.77
2019-03-26T10:27:54.500Z,102005.86
2019-03-26T10:30:35.159Z,101998.89
2019-03-26T10:33:01.254Z,102002.45
2019-03-26T10:35:27.035Z,102003.89
2019-03-26T10:37:52.839Z,102002.58
2019-03-26T10:40:31.471Z,102007.56
2019-03-26T10:42:57.667Z,102000.72
2019-03-26T10:45:23.449Z,102005.63
2019-03-26T10:47:49.239Z,102007.80
2019-03-26T10:50:15.025Z,102007.48
2019-03-26T10:52:40.809Z,102010.48
2019-03-26T10:55:06.595Z,102008.84
2019-03-26T10:57:32.481Z,102003.08
2019-03-26T10:59:58.267Z,101999.35
2019-03-26T11:02:24.064Z,101998.63
2019-03-26T11:04:49.844Z,101999.78
2019-03-26T11:07:15.737Z,101997.20
2019-03-26T11:09:41.526Z,102000.55
2019-03-26T11:12:07.314Z,101988.34
2019-03-26T11:14:33.092Z,102002.36
2019-03-26T11:16:58.896Z,102012.39
2019-03-26T11:19:24.673Z,102010.22
2019-03-26T11:21:50.466Z,102006.72
2019-03-26T11:24:16.270Z,102007.16
2019-03-26T11:26:42.047Z,102005.69
2019-03-26T11:29:07.837Z,102004.50
2019-03-26T11:31:33.620Z,102002.29
2019-03-26T11:33:59.499Z,101997.89
2019-03-26T11:36:25.285Z,102002.30
2019-03-26T11:38:51.080Z,101998.56
2019-03-26T11:41:16.856Z,102003.55
2019-03-26T11:43:42.651Z,102007.02
2019-03-26T11:46:08.441Z,102005.33
2019-03-26T11:48:34.230Z,102016.20
2019-03-26T11:51:00.017Z,102013.28
2019-03-26T11:53:25.807Z,102004.20
2019-03-26T11:55:51.638Z,101997.77
2019-03-26T11:58:29.487Z,101992.70
2019-03-26T12:00:45.124Z,102002.16
2019-03-26T12:03:10.917Z,101991.61
2019-03-26T12:05:36.701Z,101995.22
2019-03-26T12:08:02.687Z,101989.75
2019-03-26T12:10:28.459Z,101995.14
2019-03-26T12:12:54.262Z,101995.16
2019-03-26T12:15:20.035Z,102006.92
2019-03-26T12:17:45.827Z,102010.95
2019-03-26T12:20:11.916Z,102003.97
2019-03-26T12:25:19.296Z,102003.73
2019-03-26T12:27:45.088Z,102012.23
2019-03-26T12:30:11.067Z,102009.24
2019-03-26T12:32:36.861Z,102012.49
2019-03-26T12:35:05.643Z,102012.22
2019-03-26T12:37:31.443Z,102001.90
2019-03-26T12:39:59.622Z,102001.90
2019-03-26T12:42:24.954Z,102010.20
2019-03-26T12:44:50.731Z,102010.20
2019-03-26T12:47:16.522Z,102011.71
2019-03-26T12:49:42.321Z,102007.44
2019-03-26T12:52:08.083Z,102007.72
2019-03-26T12:54:33.880Z,102008.03
2019-03-26T12:56:59.654Z,102020.52
2019-03-26T12:59:26.770Z,102025.14
2019-03-26T13:01:52.738Z,102020.66
2019-03-26T13:04:18.533Z,102016.23
2019-03-26T13:06:44.319Z,102020.49
2019-03-26T13:09:10.114Z,102020.49
2019-03-26T13:11:35.912Z,102032.63
2019-03-26T13:14:01.704Z,102022.90
2019-03-26T13:16:27.502Z,102028.01
2019-03-26T13:18:53.294Z,102028.01
2019-03-26T13:21:19.079Z,102028.06
2019-03-26T13:23:44.874Z,102030.58
2019-03-26T13:26:10.653Z,102034.48
2019-03-26T13:28:36.445Z,102043.67
2019-03-26T13:31:02.233Z,102047.89
2019-03-26T13:33:28.035Z,102051.74
2019-03-26T13:35:53.812Z,102049.09
2019-03-26T13:38:19.603Z,102052.28
2019-03-26T13:40:45.404Z,102050.68
2019-03-26T13:43:11.235Z,102056.16
2019-03-26T13:45:36.985Z,102057.73
2019-03-26T13:48:02.765Z,102060.20
2019-03-26T13:50:28.558Z,102071.05
2019-03-26T13:52:54.340Z,102074.91
2019-03-26T13:55:20.136Z,102074.48
2019-03-26T13:57:45.925Z,102084.16
2019-03-26T14:00:12.215Z,102084.16
2019-03-26T14:02:38.011Z,102098.52
2019-03-26T14:05:23.958Z,102091.70
2019-03-26T14:07:49.846Z,102091.70
2019-03-26T14:10:15.741Z,102096.60
2019-03-26T14:12:41.532Z,102100.22
2019-03-26T14:15:07.346Z,102106.77
2019-03-26T14:17:33.119Z,102101.11
2019-03-26T14:19:58.928Z,102108.27
2019-03-26T14:22:24.731Z,102114.94
2019-03-26T14:24:50.508Z,102111.30
2019-03-26T14:27:16.304Z,102122.38
2019-03-26T14:29:42.081Z,102117.26
2019-03-26T14:32:07.877Z,102111.77
2019-03-26T14:34:33.656Z,102112.73
2019-03-26T14:36:59.448Z,102114.55
2019-03-26T14:39:25.232Z,102118.11
2019-03-26T14:41:51.035Z,102116.13
2019-03-26T14:44:16.803Z,102112.16
2019-03-26T14:46:42.591Z,102115.25
2019-03-26T14:49:08.367Z,102116.95
2019-03-26T14:51:34.160Z,102113.98
2019-03-26T14:53:59.936Z,102114.92
2019-03-26T14:56:25.731Z,102110.45
2019-03-26T14:58:51.513Z,102112.87
2019-03-26T15:01:17.310Z,102119.66
2019-03-26T15:03:43.079Z,102115.48
2019-03-26T15:06:08.863Z,102109.22
2019-03-26T15:08:34.754Z,102105.64
2019-03-26T15:11:07.939Z,102113.26
2019-03-26T15:13:28.259Z,102112.34
2019-03-26T15:15:54.044Z,102113.69
2019-03-26T15:18:19.834Z,102117.08
2019-03-26T15:20:45.626Z,102124.45
2019-03-26T15:23:11.438Z,102116.96
2019-03-26T15:25:37.226Z,102111.95
2019-03-26T15:28:03.030Z,102119.62
2019-03-26T15:30:28.847Z,102126.26
2019-03-26T15:32:54.635Z,102124.40
2019-03-26T15:35:20.425Z,102121.34
2019-03-26T15:37:46.217Z,102119.80
2019-03-26T15:40:12.232Z,102120.59
2019-03-26T15:42:38.144Z,102131.03
2019-03-26T15:45:07.582Z,102125.66
2019-03-26T15:47:33.395Z,102128.37
2019-03-26T15:49:59.174Z,102132.76
2019-03-26T15:52:24.965Z,102128.98
2019-03-26T15:54:50.760Z,102131.67
2019-03-26T15:57:16.547Z,102131.77
2019-03-26T15:59:42.329Z,102128.02
2019-03-26T16:02:08.131Z,102131.36
2019-03-26T16:04:33.912Z,102137.89
2019-03-26T16:06:59.690Z,102138.78
2019-03-26T16:09:25.555Z,102142.37
2019-03-26T16:11:51.334Z,102142.56
2019-03-26T16:14:17.119Z,102143.62
2019-03-26T16:16:42.914Z,102149.70
2019-03-26T16:19:08.710Z,102152.40
2019-03-26T16:21:34.569Z,102155.77
2019-03-26T16:24:00.493Z,102153.48
2019-03-26T16:26:26.268Z,102141.58
2019-03-26T16:28:52.086Z,102151.95
2019-03-26T16:31:17.961Z,102142.22
2019-03-26T16:33:43.767Z,102148.94
2019-03-26T16:36:09.542Z,102149.39
2019-03-26T16:38:35.337Z,102151.53
2019-03-26T16:41:01.114Z,102150.14
2019-03-26T16:43:26.915Z,102161.05
2019-03-26T16:45:52.703Z,102159.28
2019-03-26T16:48:18.578Z,102158.38
2019-03-26T16:50:44.383Z,102158.38
2019-03-26T16:53:10.178Z,102160.44
2019-03-26T16:55:35.957Z,102159.73
2019-03-26T16:58:01.753Z,102160.52
2019-03-26T17:00:31.402Z,102161.03
2019-03-26T17:02:58.177Z,102155.66
2019-03-26T17:05:24.860Z,102151.03
2019-03-26T17:07:50.639Z,102156.14
2019-03-26T17:10:16.422Z,102163.93
2019-03-26T17:12:42.200Z,102158.79
2019-03-26T17:15:08.193Z,102162.90
2019-03-26T17:17:33.978Z,102164.29
2019-03-26T17:19:59.776Z,102161.55
2019-03-26T17:22:25.588Z,102169.54
2019-03-26T17:24:51.377Z,102172.58
2019-03-26T17:27:17.172Z,102175.47
2019-03-26T17:29:42.960Z,102175.47
2019-03-26T17:32:08.730Z,102180.20
2019-03-26T17:34:34.528Z,102181.27
2019-03-26T17:37:00.299Z,102188.55
2019-03-26T17:39:26.095Z,102202.77
2019-03-26T17:41:51.902Z,102195.63
2019-03-26T17:44:17.794Z,102192.94
2019-03-26T17:46:43.741Z,102190.33
2019-03-26T17:49:09.538Z,102198.90
2019-03-26T17:51:35.309Z,102207.79
2019-03-26T17:54:01.189Z,102209.64
2019-03-26T17:56:26.991Z,102215.86
2019-03-26T17:58:52.788Z,102206.73
2019-03-26T18:01:18.570Z,102206.45
2019-03-26T18:03:44.472Z,102213.72
2019-03-26T18:06:10.245Z,102208.70
2019-03-26T18:08:36.039Z,102209.28
2019-03-26T18:11:01.914Z,102208.84
2019-03-26T18:13:27.715Z,102215.78
2019-03-26T18:15:53.488Z,102221.98
2019-03-26T18:18:19.271Z,102227.16
2019-03-26T18:20:45.053Z,102230.28
2019-03-26T18:23:10.852Z,102229.70
2019-03-26T18:25:36.746Z,102230.63
2019-03-26T18:28:02.619Z,102236.36
2019-03-26T18:30:28.402Z,102241.23
2019-03-26T18:32:54.192Z,102251.56
2019-03-26T18:35:19.982Z,102257.15
2019-03-26T18:37:45.758Z,102248.58
2019-03-26T18:40:11.653Z,102257.33
2019-03-26T18:42:43.871Z,102255.22
2019-03-26T18:45:05.524Z,102248.77
2019-03-26T18:47:31.302Z,102241.97
2019-03-26T18:49:57.092Z,102250.59
2019-03-26T18:52:22.919Z,102253.03
2019-03-26T18:54:48.708Z,102259.48
2019-03-26T18:57:14.485Z,102260.87
2019-03-26T18:59:40.374Z,102266.05
2019-03-26T19:02:06.156Z,102261.91
2019-03-26T19:04:31.954Z,102263.33
2019-03-26T19:06:57.726Z,102262.38
2019-03-26T19:09:23.523Z,102266.50
2019-03-26T19:11:49.308Z,102264.70
2019-03-26T19:14:15.092Z,102268.83
2019-03-26T19:16:40.894Z,102272.58
2019-03-26T19:19:06.676Z,102275.42
2019-03-26T19:21:32.464Z,102279.00
2019-03-26T19:24:03.829Z,102282.45
2019-03-26T19:26:25.969Z,102282.45
2019-03-26T19:28:51.752Z,102281.53
2019-03-26T19:31:17.558Z,102285.09
2019-03-26T19:33:43.322Z,102280.48
2019-03-26T19:36:09.204Z,102280.13
2019-03-26T19:38:34.979Z,102288.61
2019-03-26T19:41:00.772Z,102290.30
2019-03-26T19:43:26.559Z,102295.11
2019-03-26T19:45:52.453Z,102292.33
2019-03-26T19:48:18.228Z,102290.36
2019-03-26T19:50:44.025Z,102290.52
2019-03-26T19:53:09.797Z,102297.23
2019-03-26T19:55:35.580Z,102289.53
2019-03-26T19:58:01.375Z,102289.44
2019-03-26T20:00:27.158Z,102287.94
2019-03-26T20:02:52.977Z,102288.92
2019-03-26T20:05:18.752Z,102282.52
2019-03-26T20:07:44.569Z,102287.05
2019-03-26T20:10:10.863Z,102290.56
2019-03-26T20:12:36.640Z,102285.88
2019-03-26T20:15:07.487Z,102293.56
2019-03-26T20:17:33.275Z,102296.61
2019-03-26T20:19:59.058Z,102294.34
2019-03-26T20:22:24.883Z,102293.37
2019-03-26T20:24:50.659Z,102298.37
2019-03-26T20:27:16.455Z,102304.73
2019-03-26T20:29:42.230Z,102311.64
2019-03-26T20:32:08.039Z,102309.11
2019-03-26T20:34:33.813Z,102309.58
2019-03-26T20:36:59.609Z,102310.82
2019-03-26T20:39:25.402Z,102314.59
2019-03-26T20:41:51.164Z,102316.19
2019-03-26T20:44:16.944Z,102316.70
2019-03-26T20:46:42.723Z,102324.17
2019-03-26T20:49:08.515Z,102322.90
2019-03-26T20:51:34.288Z,102334.30
2019-03-26T20:54:00.081Z,102327.94
2019-03-26T20:56:25.863Z,102335.63
2019-03-26T20:58:51.758Z,102342.70
2019-03-26T21:01:17.536Z,102337.95
2019-03-26T21:03:43.323Z,102342.70
2019-03-26T21:06:09.101Z,102343.03
2019-03-26T21:08:34.892Z,102341.84
2019-03-26T21:11:00.667Z,102350.40
2019-03-26T21:13:26.457Z,102347.61
2019-03-26T21:15:57.300Z,102354.54
2019-03-26T21:18:19.934Z,102349.05
2019-03-26T21:20:45.704Z,102346.89
2019-03-26T21:23:11.507Z,102350.03
2019-03-26T21:25:37.286Z,102344.56
2019-03-26T21:28:03.084Z,102351.48
2019-03-26T21:30:28.867Z,102353.44
2019-03-26T21:32:54.767Z,102346.84
2019-03-26T21:35:20.542Z,102341.63
2019-03-26T21:37:46.317Z,102346.58
2019-03-26T21:40:12.099Z,102343.75
2019-03-26T21:42:37.876Z,102349.42
2019-03-26T21:45:05.674Z,102350.61
2019-03-26T21:47:31.452Z,102355.72
2019-03-26T21:49:57.241Z,102350.11
2019-03-26T21:52:23.022Z,102344.30
2019-03-26T21:54:48.814Z,102355.30
2019-03-26T21:57:14.590Z,102356.38
2019-03-26T21:59:40.375Z,102360.27
2019-03-26T22:02:06.161Z,102363.27
2019-03-26T22:04:31.954Z,102364.51
2019-03-26T22:06:57.728Z,102368.42
2019-03-26T22:09:23.519Z,102363.57
2019-03-26T22:11:50.359Z,102373.69
2019-03-26T22:14:18.365Z,102369.19
2019-03-26T22:16:43.864Z,102379.52
2019-03-26T22:19:09.653Z,102379.37
2019-03-26T22:21:35.437Z,102382.42
2019-03-26T22:24:01.255Z,102391.60
2019-03-26T22:26:27.031Z,102396.47
2019-03-26T22:28:52.877Z,102406.41
2019-03-26T22:31:18.654Z,102403.32
2019-03-26T22:33:44.449Z,102396.97
2019-03-26T22:36:10.216Z,102397.55
2019-03-26T22:38:36.001Z,102406.84
2019-03-26T22:41:01.913Z,102411.73
2019-03-26T22:43:27.987Z,102411.48
2019-03-26T22:45:53.779Z,102417.72
2019-03-26T22:48:19.556Z,102423.93
2019-03-26T22:50:45.356Z,102427.12
2019-03-26T22:53:11.202Z,102430.02
2019-03-26T22:55:36.988Z,102441.02
2019-03-26T22:58:02.768Z,102452.08
2019-03-26T23:00:30.458Z,102437.30
2019-03-26T23:02:56.230Z,102441.23
2019-03-26T23:05:22.028Z,102450.52
2019-03-26T23:07:47.807Z,102452.59
2019-03-26T23:10:14.298Z,102451.97
2019-03-26T23:12:40.077Z,102449.28
2019-03-26T23:15:13.884Z,102459.30
2019-03-26T23:17:39.655Z,102454.44
2019-03-26T23:20:05.548Z,102455.02
2019-03-26T23:22:31.345Z,102455.27
2019-03-26T23:24:57.136Z,102453.63
2019-03-26T23:27:22.928Z,102455.12
2019-03-26T23:29:48.719Z,102454.88
2019-03-26T23:32:14.532Z,102446.34
2019-03-26T23:34:40.312Z,102449.47
2019-03-26T23:37:06.087Z,102443.77
2019-03-26T23:39:31.886Z,102442.39
2019-03-26T23:41:57.659Z,102443.16
2019-03-26T23:44:26.159Z,102445.36
2019-03-26T23:46:51.135Z,102442.39
2019-03-26T23:49:16.920Z,102439.34
2019-03-26T23:51:42.708Z,102439.89
2019-03-26T23:54:08.491Z,102433.79
2019-03-26T23:56:34.280Z,102439.89
2019-03-26T23:59:01.084Z,102442.31
